Terminal Aerodrome Forecast
Issued by NWS

Home | Current Version | Previous Version | Text Only | Print | Product List | Glossary On
Versions: 1 2 3 4 5 6 7 8 9 10 11 12 13 14 15 16 17 18 19 20 21 22 23 24 25 26 27 28
000
FTUS46 KLOX 230902 AAA
TAFSBP
TAF AMD
KSBP 230902Z 2309/2406 VRB03KT P6SM OVC005
     FM231100 VRB03KT 1SM BR OVC003
     FM231500 VRB03KT 5SM BR BKN007
     FM231800 25008KT P6SM FEW010
     FM232100 28008KT P6SM SKC
     FM240500 30008KT P6SM OVC015=

USA.gov is the U.S. government's official web portal to all federal, state and local government web resources and services.